createdAt,value
2018-06-23T00:01:56.919Z,101835.94
2018-06-23T00:04:25.993Z,101837.59
2018-06-23T00:06:55.101Z,101833.89
2018-06-23T00:09:24.167Z,101829.17
2018-06-23T00:11:53.281Z,101831.32
2018-06-23T00:14:22.368Z,101831.88
2018-06-23T00:16:51.487Z,101837.41
2018-06-23T00:19:20.574Z,101839.25
2018-06-23T00:21:50.251Z,101835.17
2018-06-23T00:24:19.340Z,101831.23
2018-06-23T00:26:48.448Z,101834.64
2018-06-23T00:29:17.524Z,101840.71
2018-06-23T00:31:46.633Z,101839.26
2018-06-23T00:34:15.716Z,101835.82
2018-06-23T00:36:44.827Z,101834.94
2018-06-23T00:39:13.928Z,101840.88
2018-06-23T00:41:43.044Z,101837.33
2018-06-23T00:44:12.141Z,101836.58
2018-06-23T00:46:41.277Z,101834.06
2018-06-23T00:49:10.368Z,101834.78
2018-06-23T00:51:39.512Z,101837.68
2018-06-23T00:54:08.600Z,101834.48
2018-06-23T00:56:37.716Z,101829.64
2018-06-23T00:59:18.176Z,101831.26
2018-06-23T01:01:47.285Z,101830.03
2018-06-23T01:04:16.375Z,101828.56
2018-06-23T01:06:45.512Z,101828.00
2018-06-23T01:09:14.600Z,101829.92
2018-06-23T01:11:43.715Z,101825.95
2018-06-23T01:14:12.824Z,101828.75
2018-06-23T01:16:41.946Z,101829.44
2018-06-23T01:19:11.037Z,101830.03
2018-06-23T01:21:40.157Z,101825.80
2018-06-23T01:24:09.248Z,101821.30
2018-06-23T01:26:38.377Z,101818.73
2018-06-23T01:29:07.500Z,101818.39
2018-06-23T01:31:36.596Z,101817.22
2018-06-23T01:34:05.728Z,101814.48
2018-06-23T01:36:34.993Z,101813.73
2018-06-23T01:39:06.093Z,101809.00
2018-06-23T01:41:35.189Z,101807.27
2018-06-23T01:44:04.533Z,101804.71
2018-06-23T01:46:33.619Z,101798.30
2018-06-23T01:49:02.837Z,101798.17
2018-06-23T01:51:31.948Z,101795.32
2018-06-23T01:54:01.064Z,101788.45
2018-06-23T01:56:30.162Z,101782.92
2018-06-23T01:58:59.293Z,101776.97
2018-06-23T02:01:28.390Z,101769.76
2018-06-23T02:03:57.537Z,101768.84
2018-06-23T02:06:26.641Z,101766.67
2018-06-23T02:08:55.780Z,101775.13
2018-06-23T02:11:24.868Z,101772.13
2018-06-23T02:13:59.241Z,101773.41
2018-06-23T02:16:33.565Z,101771.38
2018-06-23T02:19:08.096Z,101770.22
2018-06-23T02:21:42.621Z,101778.31
2018-06-23T02:24:17.025Z,101779.30
2018-06-23T02:26:51.524Z,101774.88
2018-06-23T02:30:25.732Z,101774.88
2018-06-23T02:32:54.853Z,101776.19
2018-06-23T02:35:24.009Z,101774.29
2018-06-23T02:37:53.145Z,101780.69
2018-06-23T02:40:22.241Z,101777.80
2018-06-23T02:42:51.360Z,101775.52
2018-06-23T02:45:20.451Z,101775.86
2018-06-23T02:47:49.560Z,101778.34
2018-06-23T02:50:18.693Z,101773.29
2018-06-23T02:52:47.809Z,101772.02
2018-06-23T02:55:16.919Z,101777.31
2018-06-23T02:57:46.045Z,101782.50
2018-06-23T03:00:15.156Z,101766.73
2018-06-23T03:02:44.289Z,101762.59
2018-06-23T03:05:13.401Z,101760.45
2018-06-23T03:07:42.530Z,101757.02
2018-06-23T03:10:11.612Z,101759.97
2018-06-23T03:12:40.734Z,101757.87
2018-06-23T03:15:09.845Z,101768.40
2018-06-23T03:17:39.001Z,101764.22
2018-06-23T03:20:08.112Z,101761.99
2018-06-23T03:22:37.210Z,101761.07
2018-06-23T03:25:06.332Z,101756.58
2018-06-23T03:27:35.429Z,101763.11
2018-06-23T03:30:04.567Z,101769.70
2018-06-23T03:32:33.656Z,101772.59
2018-06-23T03:35:02.796Z,101773.93
2018-06-23T03:37:31.892Z,101771.03
2018-06-23T03:40:01.012Z,101777.93
2018-06-23T03:42:30.109Z,101786.42
2018-06-23T03:44:59.232Z,101789.26
2018-06-23T03:47:28.334Z,101783.88
2018-06-23T03:49:57.492Z,101785.89
2018-06-23T03:52:26.588Z,101782.38
2018-06-23T03:54:55.705Z,101781.20
2018-06-23T03:57:24.809Z,101783.77
2018-06-23T03:59:53.944Z,101779.30
2018-06-23T04:02:23.065Z,101782.33
2018-06-23T04:04:52.189Z,101777.47
2018-06-23T04:07:21.314Z,101778.67
2018-06-23T04:09:50.447Z,101778.53
2018-06-23T04:12:19.552Z,101781.78
2018-06-23T04:14:48.677Z,101786.77
2018-06-23T04:17:17.861Z,101790.22
2018-06-23T04:19:46.987Z,101787.98
2018-06-23T04:22:16.089Z,101787.25
2018-06-23T04:24:45.233Z,101779.68
2018-06-23T04:27:14.342Z,101767.36
2018-06-23T04:29:43.461Z,101770.22
2018-06-23T04:32:12.572Z,101776.11
2018-06-23T04:34:41.721Z,101771.05
2018-06-23T04:37:10.813Z,101767.68
2018-06-23T04:39:39.932Z,101771.58
2018-06-23T04:42:09.314Z,101783.56
2018-06-23T04:44:38.436Z,101784.30
2018-06-23T04:47:07.576Z,101776.23
2018-06-23T04:49:36.791Z,101774.55
2018-06-23T04:52:05.926Z,101773.21
2018-06-23T04:54:35.037Z,101774.06
2018-06-23T04:57:04.137Z,101773.19
2018-06-23T04:59:33.249Z,101776.23
2018-06-23T05:02:02.345Z,101775.64
2018-06-23T05:04:31.460Z,101770.65
2018-06-23T05:07:00.556Z,101778.80
2018-06-23T05:09:29.664Z,101773.02
2018-06-23T05:11:58.768Z,101771.03
2018-06-23T05:14:27.896Z,101773.48
2018-06-23T05:16:56.993Z,101771.31
2018-06-23T05:19:26.109Z,101767.96
2018-06-23T05:21:55.200Z,101765.98
2018-06-23T05:24:24.309Z,101768.96
2018-06-23T05:26:53.397Z,101761.15
2018-06-23T05:29:22.516Z,101762.54
2018-06-23T05:31:51.662Z,101756.69
2018-06-23T05:34:20.716Z,101757.55
2018-06-23T05:36:49.804Z,101767.86
2018-06-23T05:39:18.915Z,101765.36
2018-06-23T05:41:48.016Z,101771.34
2018-06-23T05:44:17.126Z,101770.25
2018-06-23T05:46:46.217Z,101770.11
2018-06-23T05:49:15.347Z,101777.44
2018-06-23T05:51:44.484Z,101774.39
2018-06-23T05:54:13.607Z,101773.06
2018-06-23T05:56:42.712Z,101770.50
2018-06-23T05:59:11.851Z,101766.96
2018-06-23T06:01:40.953Z,101768.75
2018-06-23T06:04:10.042Z,101761.73
2018-06-23T06:06:39.161Z,101763.59
2018-06-23T06:09:09.655Z,101761.59
2018-06-23T06:11:38.776Z,101763.70
2018-06-23T06:14:07.912Z,101762.59
2018-06-23T06:17:39.323Z,101760.73
2018-06-23T06:20:09.746Z,101757.65
2018-06-23T06:22:40.153Z,101763.59
2018-06-23T06:25:09.878Z,101766.33
2018-06-23T06:27:39.008Z,101759.27
2018-06-23T06:30:09.400Z,101755.78
2018-06-23T06:32:38.783Z,101759.34
2018-06-23T06:35:08.216Z,101756.66
2018-06-23T06:37:37.316Z,101760.02
2018-06-23T06:40:07.308Z,101762.17
2018-06-23T06:42:36.460Z,101755.53
2018-06-23T06:45:06.044Z,101757.73
2018-06-23T06:47:35.144Z,101754.20
2018-06-23T06:50:04.649Z,101750.41
2018-06-23T06:52:33.740Z,101761.94
2018-06-23T06:55:02.864Z,101756.75
2018-06-23T06:57:31.974Z,101754.00
2018-06-23T07:00:01.112Z,101760.36
2018-06-23T07:02:30.209Z,101761.81
2018-06-23T07:04:59.324Z,101765.95
2018-06-23T07:07:28.441Z,101769.41
2018-06-23T07:09:57.552Z,101777.56
2018-06-23T07:12:26.645Z,101774.00
2018-06-23T07:14:55.765Z,101778.54
2018-06-23T07:17:24.873Z,101772.42
2018-06-23T07:19:53.968Z,101777.95
2018-06-23T07:22:23.100Z,101783.49
2018-06-23T07:24:52.228Z,101785.34
2018-06-23T07:27:21.377Z,101786.56
2018-06-23T07:29:50.465Z,101791.69
2018-06-23T07:32:19.584Z,101785.23
2018-06-23T07:34:48.819Z,101791.28
2018-06-23T07:37:17.788Z,101796.96
2018-06-23T07:39:46.890Z,101787.33
2018-06-23T07:42:16.039Z,101785.19
2018-06-23T07:44:45.220Z,101784.77
2018-06-23T07:47:14.360Z,101785.75
2018-06-23T07:49:43.489Z,101777.32
2018-06-23T07:52:12.604Z,101789.95
2018-06-23T07:54:41.700Z,101784.80
2018-06-23T07:57:10.876Z,101782.87
2018-06-23T07:59:39.976Z,101779.19
2018-06-23T08:02:09.108Z,101771.89
2018-06-23T08:04:40.422Z,101771.75
2018-06-23T08:07:09.637Z,101770.95
2018-06-23T08:09:38.747Z,101767.25
2018-06-23T08:12:07.869Z,101775.80
2018-06-23T08:14:36.964Z,101761.84
2018-06-23T08:17:06.088Z,101765.18
2018-06-23T08:19:35.191Z,101760.75
2018-06-23T08:22:04.366Z,101751.16
2018-06-23T08:24:34.332Z,101766.94
2018-06-23T08:27:03.536Z,101754.95
2018-06-23T08:29:33.528Z,101756.19
2018-06-23T08:32:02.800Z,101747.62
2018-06-23T08:34:32.204Z,101752.52
2018-06-23T08:37:01.328Z,101767.83
2018-06-23T08:39:30.861Z,101773.84
2018-06-23T08:41:59.993Z,101766.19
2018-06-23T08:44:29.100Z,101766.91
2018-06-23T08:46:58.234Z,101774.33
2018-06-23T08:49:27.604Z,101766.09
2018-06-23T08:51:56.937Z,101759.05
2018-06-23T08:54:26.168Z,101771.49
2018-06-23T08:56:55.359Z,101759.88
2018-06-23T08:59:24.682Z,101756.33
2018-06-23T09:01:54.119Z,101753.96
2018-06-23T09:04:23.040Z,101761.20
2018-06-23T09:06:52.640Z,101760.55
2018-06-23T09:09:21.804Z,101753.85
2018-06-23T09:11:50.925Z,101756.81
2018-06-23T09:14:20.021Z,101753.22
2018-06-23T09:16:49.172Z,101757.58
2018-06-23T09:19:18.326Z,101767.06
2018-06-23T09:21:47.685Z,101758.69
2018-06-23T09:24:16.977Z,101757.02
2018-06-23T09:26:46.116Z,101763.07
2018-06-23T09:29:15.212Z,101761.48
2018-06-23T09:31:44.528Z,101762.36
2018-06-23T09:34:15.517Z,101762.35
2018-06-23T09:36:44.829Z,101773.38
2018-06-23T09:39:13.933Z,101766.52
2018-06-23T09:41:43.032Z,101759.45
2018-06-23T09:44:12.129Z,101761.47
2018-06-23T09:46:41.259Z,101765.75
2018-06-23T09:49:10.356Z,101773.97
2018-06-23T09:51:39.480Z,101763.25
2018-06-23T09:54:08.556Z,101771.92
2018-06-23T09:56:37.664Z,101762.73
2018-06-23T09:59:06.773Z,101761.52
2018-06-23T10:01:36.330Z,101757.53
2018-06-23T10:04:05.560Z,101760.07
2018-06-23T10:06:34.718Z,101762.87
2018-06-23T10:09:05.924Z,101761.97
2018-06-23T10:11:35.046Z,101761.55
2018-06-23T10:14:04.647Z,101758.11
2018-06-23T10:16:33.775Z,101765.25
2018-06-23T10:19:02.892Z,101762.43
2018-06-23T10:21:32.025Z,101771.46
2018-06-23T10:24:01.090Z,101780.06
2018-06-23T10:26:30.168Z,101779.73
2018-06-23T10:28:59.275Z,101776.30
2018-06-23T10:31:28.453Z,101776.62
2018-06-23T10:33:57.549Z,101780.25
2018-06-23T10:36:26.644Z,101773.39
2018-06-23T10:38:55.761Z,101777.75
2018-06-23T10:41:26.077Z,101774.80
2018-06-23T10:43:55.212Z,101780.93
2018-06-23T10:46:24.359Z,101783.61
2018-06-23T10:48:53.457Z,101776.63
2018-06-23T10:51:22.570Z,101787.08
2018-06-23T10:53:51.681Z,101779.41
2018-06-23T10:56:20.776Z,101776.97
2018-06-23T10:58:49.917Z,101790.69
2018-06-23T11:01:19.025Z,101791.46
2018-06-23T11:03:48.136Z,101787.30
2018-06-23T11:06:17.276Z,101779.20
2018-06-23T11:08:46.388Z,101781.70
2018-06-23T11:11:15.533Z,101782.98
2018-06-23T11:13:44.777Z,101785.15
2018-06-23T11:16:14.252Z,101770.09
2018-06-23T11:18:43.446Z,101771.12
2018-06-23T11:21:12.624Z,101765.53
2018-06-23T11:23:43.132Z,101770.30
2018-06-23T11:26:12.342Z,101771.72
2018-06-23T11:28:41.465Z,101769.16
2018-06-23T11:31:10.645Z,101775.28
2018-06-23T11:33:39.869Z,101770.55
2018-06-23T11:36:08.978Z,101777.95
2018-06-23T11:38:38.176Z,101765.82
2018-06-23T11:41:07.289Z,101775.04
2018-06-23T11:43:36.476Z,101770.48
2018-06-23T11:46:05.989Z,101775.59
2018-06-23T11:48:35.112Z,101786.81
2018-06-23T11:51:04.242Z,101776.89
2018-06-23T11:53:33.372Z,101774.79
2018-06-23T11:56:02.554Z,101765.13
2018-06-23T11:58:31.813Z,101765.61
2018-06-23T12:01:00.923Z,101775.13
2018-06-23T12:03:30.474Z,101766.56
2018-06-23T12:05:59.563Z,101771.30
2018-06-23T12:08:29.045Z,101764.86
2018-06-23T12:10:58.599Z,101765.20
2018-06-23T12:13:29.405Z,101759.55
2018-06-23T12:16:02.077Z,101761.58
2018-06-23T12:18:32.875Z,101750.67
2018-06-23T12:21:03.239Z,101747.66
2018-06-23T12:23:33.596Z,101746.56
2018-06-23T12:26:03.660Z,101744.95
2018-06-23T12:28:35.009Z,101746.27
2018-06-23T12:31:05.298Z,101747.09
2018-06-23T12:33:35.994Z,101748.31
2018-06-23T12:36:06.560Z,101749.44
2018-06-23T12:38:36.726Z,101753.72
2018-06-23T12:41:06.345Z,101751.17
2018-06-23T12:43:36.526Z,101747.44
2018-06-23T12:46:06.718Z,101741.05
2018-06-23T12:48:37.997Z,101742.86
2018-06-23T12:51:07.904Z,101736.88
2018-06-23T12:53:37.615Z,101734.67
2018-06-23T12:56:11.504Z,101735.84
2018-06-23T12:58:41.668Z,101740.06
2018-06-23T13:01:11.395Z,101740.41
2018-06-23T13:03:41.234Z,101742.98
2018-06-23T13:06:12.873Z,101737.53
2018-06-23T13:08:43.899Z,101739.73
2018-06-23T13:11:13.835Z,101741.91
2018-06-23T13:13:44.130Z,101737.61
2018-06-23T13:16:14.477Z,101737.08
2018-06-23T13:18:44.568Z,101738.70
2018-06-23T13:21:15.600Z,101739.62
2018-06-23T13:23:46.216Z,101742.20
2018-06-23T13:26:17.925Z,101728.09
2018-06-23T13:28:49.310Z,101727.70
2018-06-23T13:31:19.970Z,101731.62
2018-06-23T13:33:50.067Z,101732.41
2018-06-23T13:36:21.993Z,101730.62
2018-06-23T13:38:52.962Z,101730.19
2018-06-23T13:41:24.340Z,101733.77
2018-06-23T13:43:55.724Z,101730.69
2018-06-23T13:46:26.195Z,101719.13
2018-06-23T13:48:56.802Z,101712.03
2018-06-23T13:51:26.792Z,101705.75
2018-06-23T13:54:00.148Z,101702.78
2018-06-23T13:56:30.228Z,101698.88
2018-06-23T13:59:00.092Z,101704.36
2018-06-23T14:01:29.180Z,101705.19
2018-06-23T14:04:04.277Z,101704.00
2018-06-23T14:06:35.058Z,101700.14
2018-06-23T14:09:07.640Z,101706.66
2018-06-23T14:11:37.057Z,101703.20
2018-06-23T14:14:07.142Z,101700.59
2018-06-23T14:16:37.155Z,101695.85
2018-06-23T14:19:08.134Z,101697.17
2018-06-23T14:21:39.226Z,101703.97
2018-06-23T14:24:12.227Z,101702.14
2018-06-23T14:26:42.009Z,101711.17
2018-06-23T14:29:12.650Z,101706.02
2018-06-23T14:31:43.096Z,101714.63
2018-06-23T14:34:12.601Z,101710.74
2018-06-23T14:36:42.910Z,101718.50
2018-06-23T14:39:12.557Z,101719.75
2018-06-23T14:41:41.800Z,101713.26
2018-06-23T14:44:11.739Z,101714.14
2018-06-23T14:46:41.091Z,101713.66
2018-06-23T14:49:11.175Z,101717.03
2018-06-23T14:51:42.891Z,101716.10
2018-06-23T14:54:13.491Z,101712.73
2018-06-23T14:56:44.515Z,101711.40
2018-06-23T14:59:15.038Z,101710.07
2018-06-23T15:01:45.147Z,101712.95
2018-06-23T15:04:15.451Z,101721.15
2018-06-23T15:06:47.047Z,101704.28
2018-06-23T15:09:29.546Z,101709.41
2018-06-23T15:12:10.379Z,101713.28
2018-06-23T15:14:40.209Z,101708.09
2018-06-23T15:17:10.076Z,101709.00
2018-06-23T15:19:39.619Z,101714.24
2018-06-23T15:22:10.607Z,101716.47
2018-06-23T15:24:39.716Z,101720.15
2018-06-23T15:27:08.790Z,101718.30
2018-06-23T15:29:37.892Z,101716.05
2018-06-23T15:32:06.996Z,101715.34
2018-06-23T15:34:36.072Z,101715.79
2018-06-23T15:37:05.275Z,101712.47
2018-06-23T15:39:34.356Z,101702.67
2018-06-23T15:42:03.455Z,101703.56
2018-06-23T15:44:32.550Z,101705.98
2018-06-23T15:47:01.661Z,101707.34
2018-06-23T15:49:30.736Z,101711.29
2018-06-23T15:51:59.859Z,101706.50
2018-06-23T15:54:28.940Z,101705.19
2018-06-23T15:56:58.082Z,101700.41
2018-06-23T15:59:27.124Z,101705.14
2018-06-23T16:01:56.264Z,101706.02
2018-06-23T16:04:25.832Z,101702.24
2018-06-23T16:06:54.959Z,101697.88
2018-06-23T16:09:24.088Z,101706.36
2018-06-23T16:11:53.149Z,101700.79
2018-06-23T16:14:22.224Z,101700.38
2018-06-23T16:16:52.451Z,101702.19
2018-06-23T16:19:21.553Z,101695.80
2018-06-23T16:21:50.657Z,101698.05
2018-06-23T16:24:19.735Z,101693.06
2018-06-23T16:26:48.848Z,101701.12
2018-06-23T16:29:17.973Z,101694.52
2018-06-23T16:31:47.256Z,101700.89
2018-06-23T16:34:16.337Z,101690.87
2018-06-23T16:36:45.451Z,101702.85
2018-06-23T16:39:14.945Z,101698.89
2018-06-23T16:41:44.076Z,101694.86
2018-06-23T16:44:13.161Z,101709.45
2018-06-23T16:46:42.255Z,101714.96
2018-06-23T16:49:11.332Z,101708.80
2018-06-23T16:51:40.494Z,101717.78
2018-06-23T16:54:09.635Z,101719.14
2018-06-23T16:56:38.801Z,101717.47
2018-06-23T16:59:07.832Z,101714.36
2018-06-23T17:01:36.979Z,101706.60
2018-06-23T17:04:06.139Z,101712.55
2018-06-23T17:06:35.181Z,101708.07
2018-06-23T17:09:06.712Z,101712.09
2018-06-23T17:11:35.825Z,101717.30
2018-06-23T17:14:04.912Z,101711.07
2018-06-23T17:16:34.247Z,101706.28
2018-06-23T17:19:03.416Z,101710.64
2018-06-23T17:21:32.972Z,101714.74
2018-06-23T17:24:02.312Z,101710.42
2018-06-23T17:26:31.523Z,101706.44
2018-06-23T17:29:00.627Z,101712.31
2018-06-23T17:31:29.736Z,101705.05
2018-06-23T17:33:59.053Z,101708.49
2018-06-23T17:36:28.165Z,101707.16
2018-06-23T17:38:57.276Z,101710.20
2018-06-23T17:41:26.404Z,101719.66
2018-06-23T17:43:55.532Z,101710.11
2018-06-23T17:46:28.135Z,101713.05
2018-06-23T17:48:57.612Z,101711.70
2018-06-23T17:51:26.724Z,101713.00
2018-06-23T17:53:55.812Z,101715.17
2018-06-23T17:56:24.932Z,101711.91
2018-06-23T17:58:54.056Z,101706.28
2018-06-23T18:01:23.192Z,101703.69
2018-06-23T18:03:52.292Z,101700.78
2018-06-23T18:06:21.438Z,101705.78
2018-06-23T18:08:50.520Z,101708.87
2018-06-23T18:11:19.628Z,101705.72
2018-06-23T18:13:48.729Z,101699.27
2018-06-23T18:16:17.876Z,101703.16
2018-06-23T18:18:46.976Z,101705.77
2018-06-23T18:21:16.117Z,101702.92
2018-06-23T18:23:45.244Z,101699.91
2018-06-23T18:26:15.285Z,101702.00
2018-06-23T18:28:44.516Z,101694.69
2018-06-23T18:31:13.624Z,101697.22
2018-06-23T18:33:42.756Z,101701.11
2018-06-23T18:36:11.986Z,101703.27
2018-06-23T18:38:41.688Z,101708.39
2018-06-23T18:41:11.157Z,101706.68
2018-06-23T18:43:40.295Z,101705.36
2018-06-23T18:46:09.388Z,101703.70
2018-06-23T18:48:38.492Z,101702.86
2018-06-23T18:51:07.600Z,101700.33
2018-06-23T18:53:36.804Z,101709.06
2018-06-23T18:56:06.768Z,101707.82
2018-06-23T18:58:35.876Z,101710.80
2018-06-23T19:01:04.956Z,101704.47
2018-06-23T19:03:34.056Z,101704.23
2018-06-23T19:06:03.165Z,101702.96
2018-06-23T19:08:32.263Z,101704.02
2018-06-23T19:11:01.393Z,101698.45
2018-06-23T19:13:30.505Z,101705.69
2018-06-23T19:15:59.593Z,101701.77
2018-06-23T19:18:28.692Z,101700.91
2018-06-23T19:20:57.780Z,101702.20
2018-06-23T19:23:26.901Z,101702.59
2018-06-23T19:25:55.993Z,101700.87
2018-06-23T19:28:25.104Z,101707.36
2018-06-23T19:30:54.212Z,101703.53
2018-06-23T19:33:23.320Z,101713.36
2018-06-23T19:35:52.410Z,101709.98
2018-06-23T19:38:21.524Z,101715.55
2018-06-23T19:40:50.644Z,101713.34
2018-06-23T19:43:19.760Z,101709.93
2018-06-23T19:45:48.859Z,101712.52
2018-06-23T19:48:17.995Z,101715.14
2018-06-23T19:50:47.173Z,101718.51
2018-06-23T19:53:16.804Z,101713.70
2018-06-23T19:55:45.892Z,101717.95
2018-06-23T19:58:15.036Z,101720.03
2018-06-23T20:00:44.128Z,101723.09
2018-06-23T20:03:13.231Z,101721.67
2018-06-23T20:05:42.337Z,101730.66
2018-06-23T20:08:11.455Z,101727.61
2018-06-23T20:10:40.537Z,101728.91
2018-06-23T20:13:09.650Z,101723.71
2018-06-23T20:15:38.749Z,101723.66
2018-06-23T20:18:08.910Z,101726.01
2018-06-23T20:20:37.988Z,101731.59
2018-06-23T20:23:07.115Z,101732.72
2018-06-23T20:25:36.210Z,101729.30
2018-06-23T20:28:05.313Z,101729.67
2018-06-23T20:30:34.406Z,101731.84
2018-06-23T20:33:03.512Z,101726.22
2018-06-23T20:35:32.596Z,101730.09
2018-06-23T20:38:01.711Z,101728.30
2018-06-23T20:40:30.795Z,101725.61
2018-06-23T20:43:00.264Z,101721.74
2018-06-23T20:45:29.356Z,101720.37
2018-06-23T20:47:58.452Z,101719.95
2018-06-23T20:50:27.568Z,101721.59
2018-06-23T20:52:56.692Z,101724.68
2018-06-23T20:55:25.744Z,101727.67
2018-06-23T20:57:54.852Z,101727.31
2018-06-23T21:00:23.942Z,101719.22
2018-06-23T21:02:53.045Z,101722.22
2018-06-23T21:05:22.124Z,101726.14
2018-06-23T21:07:52.285Z,101720.93
2018-06-23T21:10:32.773Z,101726.39
2018-06-23T21:13:01.876Z,101726.23
2018-06-23T21:15:30.960Z,101725.70
2018-06-23T21:18:01.113Z,101726.18
2018-06-23T21:20:30.789Z,101726.30
2018-06-23T21:22:59.961Z,101732.65
2018-06-23T21:25:29.055Z,101728.66
2018-06-23T21:27:58.205Z,101724.64
2018-06-23T21:30:27.339Z,101734.78
2018-06-23T21:32:56.368Z,101731.38
2018-06-23T21:35:25.893Z,101736.03
2018-06-23T21:37:55.069Z,101733.64
2018-06-23T21:40:24.169Z,101735.73
2018-06-23T21:42:53.257Z,101737.75
2018-06-23T21:45:22.360Z,101736.14
2018-06-23T21:47:51.435Z,101735.23
2018-06-23T21:50:20.585Z,101742.27
2018-06-23T21:52:49.662Z,101742.96
2018-06-23T21:55:18.764Z,101739.34
2018-06-23T21:57:47.847Z,101744.34
2018-06-23T22:00:39.036Z,101739.53
2018-06-23T22:03:09.348Z,101739.99
2018-06-23T22:05:38.450Z,101740.86
2018-06-23T22:08:08.244Z,101731.70
2018-06-23T22:10:37.368Z,101736.62
2018-06-23T22:13:06.538Z,101734.92
2018-06-23T22:15:35.637Z,101730.16
2018-06-23T22:18:04.853Z,101731.40
2018-06-23T22:20:33.992Z,101727.17
2018-06-23T22:23:03.072Z,101729.70
2018-06-23T22:25:32.190Z,101727.38
2018-06-23T22:28:01.261Z,101723.95
2018-06-23T22:30:30.368Z,101726.94
2018-06-23T22:32:59.453Z,101732.16
2018-06-23T22:35:28.553Z,101727.47
2018-06-23T22:37:57.628Z,101726.44
2018-06-23T22:40:26.743Z,101733.23
2018-06-23T22:42:55.821Z,101733.53
2018-06-23T22:45:24.921Z,101733.90
2018-06-23T22:47:53.992Z,101728.34
2018-06-23T22:50:23.180Z,101725.41
2018-06-23T22:52:52.248Z,101728.27
2018-06-23T22:55:21.340Z,101723.12
2018-06-23T22:57:50.426Z,101720.18
2018-06-23T23:00:19.540Z,101712.77
2018-06-23T23:02:48.621Z,101713.63
2018-06-23T23:05:17.708Z,101713.55
2018-06-23T23:07:46.767Z,101714.79
2018-06-23T23:10:15.853Z,101713.02
2018-06-23T23:12:44.973Z,101708.95
2018-06-23T23:15:14.020Z,101705.19
2018-06-23T23:17:43.083Z,101705.64
2018-06-23T23:20:12.169Z,101699.63
2018-06-23T23:22:41.227Z,101689.47
2018-06-23T23:25:10.313Z,101691.52
2018-06-23T23:27:39.376Z,101690.97
2018-06-23T23:30:08.468Z,101693.46
2018-06-23T23:32:37.533Z,101691.67
2018-06-23T23:35:13.234Z,101688.64
2018-06-23T23:37:42.483Z,101690.30
2018-06-23T23:40:11.564Z,101688.47
2018-06-23T23:42:40.639Z,101684.57
2018-06-23T23:45:09.728Z,101679.73
2018-06-23T23:47:38.794Z,101675.88
2018-06-23T23:50:07.907Z,101662.62
2018-06-23T23:52:36.971Z,101666.39
2018-06-23T23:55:06.073Z,101660.87
2018-06-23T23:57:35.144Z,101656.20
